sensor_id;sensor_type;location;lat;lon;timestamp;P1;durP1;ratioP1;P2;durP2;ratioP2
16286;SDS011;8251;53.568;10.018;2024-02-21T00:02:19;24.37;;;11.70;;
16286;SDS011;8251;53.568;10.018;2024-02-21T00:04:47;34.83;;;12.90;;
16286;SDS011;8251;53.568;10.018;2024-02-21T00:07:17;25.37;;;12.40;;
16286;SDS011;8251;53.568;10.018;2024-02-21T00:09:44;32.90;;;13.73;;
16286;SDS011;8251;53.568;10.018;2024-02-21T00:12:14;33.13;;;13.93;;
16286;SDS011;8251;53.568;10.018;2024-02-21T00:14:40;26.87;;;12.20;;
16286;SDS011;8251;53.568;10.018;2024-02-21T00:17:08;34.53;;;12.87;;
16286;SDS011;8251;53.568;10.018;2024-02-21T00:19:35;32.97;;;13.53;;
16286;SDS011;8251;53.568;10.018;2024-02-21T00:22:04;31.63;;;13.17;;
16286;SDS011;8251;53.568;10.018;2024-02-21T00:24:30;34.73;;;13.33;;
16286;SDS011;8251;53.568;10.018;2024-02-21T00:26:57;27.97;;;13.37;;
16286;SDS011;8251;53.568;10.018;2024-02-21T00:29:24;29.07;;;12.73;;
16286;SDS011;8251;53.568;10.018;2024-02-21T00:31:53;30.13;;;13.43;;
16286;SDS011;8251;53.568;10.018;2024-02-21T00:34:20;31.50;;;13.73;;
16286;SDS011;8251;53.568;10.018;2024-02-21T00:36:47;34.93;;;14.23;;
16286;SDS011;8251;53.568;10.018;2024-02-21T00:39:16;32.37;;;14.23;;
16286;SDS011;8251;53.568;10.018;2024-02-21T00:41:45;33.60;;;13.73;;
16286;SDS011;8251;53.568;10.018;2024-02-21T00:44:12;36.20;;;14.77;;
16286;SDS011;8251;53.568;10.018;2024-02-21T00:46:39;32.57;;;15.07;;
16286;SDS011;8251;53.568;10.018;2024-02-21T00:49:06;39.47;;;15.07;;
16286;SDS011;8251;53.568;10.018;2024-02-21T00:51:33;30.63;;;12.77;;
16286;SDS011;8251;53.568;10.018;2024-02-21T00:54:00;25.80;;;14.10;;
16286;SDS011;8251;53.568;10.018;2024-02-21T00:56:31;33.10;;;14.17;;
16286;SDS011;8251;53.568;10.018;2024-02-21T00:58:58;36.00;;;14.70;;
16286;SDS011;8251;53.568;10.018;2024-02-21T01:01:25;30.83;;;12.77;;
16286;SDS011;8251;53.568;10.018;2024-02-21T01:03:51;33.50;;;14.20;;
16286;SDS011;8251;53.568;10.018;2024-02-21T01:06:19;29.57;;;14.87;;
16286;SDS011;8251;53.568;10.018;2024-02-21T01:08:51;35.00;;;15.13;;
16286;SDS011;8251;53.568;10.018;2024-02-21T01:11:34;34.43;;;15.23;;
16286;SDS011;8251;53.568;10.018;2024-02-21T01:14:01;30.87;;;14.23;;
16286;SDS011;8251;53.568;10.018;2024-02-21T01:16:28;31.13;;;13.77;;
16286;SDS011;8251;53.568;10.018;2024-02-21T01:18:54;35.20;;;14.50;;
16286;SDS011;8251;53.568;10.018;2024-02-21T01:21:21;38.47;;;15.00;;
16286;SDS011;8251;53.568;10.018;2024-02-21T01:23:48;28.57;;;13.73;;
16286;SDS011;8251;53.568;10.018;2024-02-21T01:26:17;31.27;;;15.03;;
16286;SDS011;8251;53.568;10.018;2024-02-21T01:28:48;30.47;;;14.60;;
16286;SDS011;8251;53.568;10.018;2024-02-21T01:31:18;31.57;;;16.70;;
16286;SDS011;8251;53.568;10.018;2024-02-21T01:33:54;35.50;;;15.07;;
16286;SDS011;8251;53.568;10.018;2024-02-21T01:36:22;30.60;;;14.40;;
16286;SDS011;8251;53.568;10.018;2024-02-21T01:38:48;29.87;;;15.27;;
16286;SDS011;8251;53.568;10.018;2024-02-21T01:41:18;33.63;;;15.30;;
16286;SDS011;8251;53.568;10.018;2024-02-21T01:43:52;36.03;;;15.13;;
16286;SDS011;8251;53.568;10.018;2024-02-21T01:46:19;35.57;;;14.93;;
16286;SDS011;8251;53.568;10.018;2024-02-21T01:48:52;28.47;;;15.40;;
16286;SDS011;8251;53.568;10.018;2024-02-21T01:51:20;30.00;;;14.57;;
16286;SDS011;8251;53.568;10.018;2024-02-21T01:53:47;34.57;;;15.73;;
16286;SDS011;8251;53.568;10.018;2024-02-21T01:56:14;32.93;;;16.77;;
16286;SDS011;8251;53.568;10.018;2024-02-21T01:58:41;34.67;;;15.73;;
16286;SDS011;8251;53.568;10.018;2024-02-21T02:01:12;33.53;;;16.90;;
16286;SDS011;8251;53.568;10.018;2024-02-21T02:03:40;41.70;;;16.70;;
16286;SDS011;8251;53.568;10.018;2024-02-21T02:06:10;32.63;;;17.57;;
16286;SDS011;8251;53.568;10.018;2024-02-21T02:08:37;39.70;;;16.63;;
16286;SDS011;8251;53.568;10.018;2024-02-21T02:11:05;34.73;;;17.50;;
16286;SDS011;8251;53.568;10.018;2024-02-21T02:13:36;42.23;;;18.63;;
16286;SDS011;8251;53.568;10.018;2024-02-21T02:16:04;33.50;;;17.27;;
16286;SDS011;8251;53.568;10.018;2024-02-21T02:18:33;34.93;;;16.97;;
16286;SDS011;8251;53.568;10.018;2024-02-21T02:21:00;34.07;;;17.33;;
16286;SDS011;8251;53.568;10.018;2024-02-21T02:23:29;38.23;;;17.83;;
16286;SDS011;8251;53.568;10.018;2024-02-21T02:25:56;39.70;;;18.53;;
16286;SDS011;8251;53.568;10.018;2024-02-21T02:28:24;37.13;;;17.57;;
16286;SDS011;8251;53.568;10.018;2024-02-21T02:30:56;30.70;;;17.17;;
16286;SDS011;8251;53.568;10.018;2024-02-21T02:33:23;35.43;;;17.80;;
16286;SDS011;8251;53.568;10.018;2024-02-21T02:35:59;37.73;;;17.80;;
16286;SDS011;8251;53.568;10.018;2024-02-21T02:38:26;35.23;;;17.97;;
16286;SDS011;8251;53.568;10.018;2024-02-21T02:41:03;38.37;;;17.40;;
16286;SDS011;8251;53.568;10.018;2024-02-21T02:43:30;31.87;;;16.20;;
16286;SDS011;8251;53.568;10.018;2024-02-21T02:45:59;31.93;;;18.77;;
16286;SDS011;8251;53.568;10.018;2024-02-21T02:48:31;38.40;;;17.00;;
16286;SDS011;8251;53.568;10.018;2024-02-21T02:50:58;34.03;;;17.43;;
16286;SDS011;8251;53.568;10.018;2024-02-21T02:53:25;41.30;;;18.03;;
16286;SDS011;8251;53.568;10.018;2024-02-21T02:55:54;31.77;;;16.17;;
16286;SDS011;8251;53.568;10.018;2024-02-21T02:58:30;35.60;;;16.10;;
16286;SDS011;8251;53.568;10.018;2024-02-21T03:00:57;30.03;;;16.97;;
16286;SDS011;8251;53.568;10.018;2024-02-21T03:03:24;34.27;;;17.27;;
16286;SDS011;8251;53.568;10.018;2024-02-21T03:05:51;38.90;;;18.27;;
16286;SDS011;8251;53.568;10.018;2024-02-21T03:08:18;36.30;;;17.37;;
16286;SDS011;8251;53.568;10.018;2024-02-21T03:10:45;35.83;;;16.47;;
16286;SDS011;8251;53.568;10.018;2024-02-21T03:13:12;38.27;;;17.43;;
16286;SDS011;8251;53.568;10.018;2024-02-21T03:15:40;42.77;;;17.87;;
16286;SDS011;8251;53.568;10.018;2024-02-21T03:18:16;32.23;;;16.40;;
16286;SDS011;8251;53.568;10.018;2024-02-21T03:20:45;33.67;;;17.03;;
16286;SDS011;8251;53.568;10.018;2024-02-21T03:26:01;36.73;;;16.50;;
16286;SDS011;8251;53.568;10.018;2024-02-21T03:28:28;41.30;;;17.40;;
16286;SDS011;8251;53.568;10.018;2024-02-21T03:30:56;35.57;;;17.33;;
16286;SDS011;8251;53.568;10.018;2024-02-21T03:33:26;30.40;;;16.90;;
16286;SDS011;8251;53.568;10.018;2024-02-21T03:35:55;35.80;;;16.13;;
16286;SDS011;8251;53.568;10.018;2024-02-21T03:38:32;35.53;;;16.53;;
16286;SDS011;8251;53.568;10.018;2024-02-21T03:41:11;43.23;;;17.40;;
16286;SDS011;8251;53.568;10.018;2024-02-21T03:43:44;31.57;;;15.60;;
16286;SDS011;8251;53.568;10.018;2024-02-21T03:46:14;34.90;;;16.17;;
16286;SDS011;8251;53.568;10.018;2024-02-21T03:48:41;32.30;;;15.93;;
16286;SDS011;8251;53.568;10.018;2024-02-21T03:51:12;33.43;;;15.83;;
16286;SDS011;8251;53.568;10.018;2024-02-21T03:53:43;27.40;;;16.20;;
16286;SDS011;8251;53.568;10.018;2024-02-21T03:56:12;39.37;;;16.37;;
16286;SDS011;8251;53.568;10.018;2024-02-21T03:58:42;30.83;;;16.60;;
16286;SDS011;8251;53.568;10.018;2024-02-21T04:01:09;36.00;;;16.33;;
16286;SDS011;8251;53.568;10.018;2024-02-21T04:03:50;30.53;;;17.43;;
16286;SDS011;8251;53.568;10.018;2024-02-21T04:06:29;39.90;;;16.63;;
16286;SDS011;8251;53.568;10.018;2024-02-21T04:08:56;31.47;;;16.20;;
16286;SDS011;8251;53.568;10.018;2024-02-21T04:11:24;33.03;;;16.27;;
16286;SDS011;8251;53.568;10.018;2024-02-21T04:13:51;32.37;;;15.33;;
16286;SDS011;8251;53.568;10.018;2024-02-21T04:16:18;38.73;;;16.13;;
16286;SDS011;8251;53.568;10.018;2024-02-21T04:18:50;44.03;;;16.73;;
16286;SDS011;8251;53.568;10.018;2024-02-21T04:21:17;42.13;;;15.93;;
16286;SDS011;8251;53.568;10.018;2024-02-21T04:23:44;32.53;;;15.63;;
16286;SDS011;8251;53.568;10.018;2024-02-21T04:26:11;29.53;;;15.23;;
16286;SDS011;8251;53.568;10.018;2024-02-21T04:28:46;30.87;;;15.77;;
16286;SDS011;8251;53.568;10.018;2024-02-21T04:31:13;33.13;;;15.20;;
16286;SDS011;8251;53.568;10.018;2024-02-21T04:33:40;33.60;;;15.77;;
16286;SDS011;8251;53.568;10.018;2024-02-21T04:36:09;31.63;;;15.30;;
16286;SDS011;8251;53.568;10.018;2024-02-21T04:38:40;33.80;;;15.80;;
16286;SDS011;8251;53.568;10.018;2024-02-21T04:41:09;30.47;;;14.63;;
16286;SDS011;8251;53.568;10.018;2024-02-21T04:43:38;31.40;;;15.23;;
16286;SDS011;8251;53.568;10.018;2024-02-21T04:46:06;33.13;;;15.10;;
16286;SDS011;8251;53.568;10.018;2024-02-21T04:48:33;34.27;;;15.33;;
16286;SDS011;8251;53.568;10.018;2024-02-21T04:51:01;25.83;;;14.13;;
16286;SDS011;8251;53.568;10.018;2024-02-21T04:53:29;31.10;;;13.50;;
16286;SDS011;8251;53.568;10.018;2024-02-21T04:55:56;32.00;;;12.97;;
16286;SDS011;8251;53.568;10.018;2024-02-21T04:58:24;27.50;;;14.57;;
16286;SDS011;8251;53.568;10.018;2024-02-21T05:00:53;29.83;;;13.43;;
16286;SDS011;8251;53.568;10.018;2024-02-21T05:03:24;27.13;;;13.93;;
16286;SDS011;8251;53.568;10.018;2024-02-21T05:05:54;29.10;;;15.23;;
16286;SDS011;8251;53.568;10.018;2024-02-21T05:08:21;26.67;;;13.80;;
16286;SDS011;8251;53.568;10.018;2024-02-21T05:10:53;26.47;;;12.50;;
16286;SDS011;8251;53.568;10.018;2024-02-21T05:13:25;21.40;;;12.20;;
16286;SDS011;8251;53.568;10.018;2024-02-21T05:15:54;23.50;;;11.97;;
16286;SDS011;8251;53.568;10.018;2024-02-21T05:18:21;24.13;;;12.87;;
16286;SDS011;8251;53.568;10.018;2024-02-21T05:20:48;23.03;;;13.07;;
16286;SDS011;8251;53.568;10.018;2024-02-21T05:23:19;22.83;;;12.80;;
16286;SDS011;8251;53.568;10.018;2024-02-21T05:25:50;22.80;;;11.20;;
16286;SDS011;8251;53.568;10.018;2024-02-21T05:28:19;22.23;;;11.47;;
16286;SDS011;8251;53.568;10.018;2024-02-21T05:30:46;22.87;;;11.07;;
16286;SDS011;8251;53.568;10.018;2024-02-21T05:33:19;20.23;;;10.63;;
16286;SDS011;8251;53.568;10.018;2024-02-21T05:35:50;20.33;;;9.60;;
16286;SDS011;8251;53.568;10.018;2024-02-21T05:38:20;21.97;;;10.50;;
16286;SDS011;8251;53.568;10.018;2024-02-21T05:40:49;17.33;;;9.23;;
16286;SDS011;8251;53.568;10.018;2024-02-21T05:43:21;18.80;;;9.30;;
16286;SDS011;8251;53.568;10.018;2024-02-21T05:45:48;15.80;;;8.13;;
16286;SDS011;8251;53.568;10.018;2024-02-21T05:48:15;15.77;;;8.53;;
16286;SDS011;8251;53.568;10.018;2024-02-21T05:50:42;20.07;;;8.70;;
16286;SDS011;8251;53.568;10.018;2024-02-21T05:53:15;16.57;;;8.13;;
16286;SDS011;8251;53.568;10.018;2024-02-21T05:55:43;13.53;;;8.27;;
16286;SDS011;8251;53.568;10.018;2024-02-21T05:58:14;18.37;;;8.17;;
16286;SDS011;8251;53.568;10.018;2024-02-21T06:00:42;12.33;;;7.57;;
16286;SDS011;8251;53.568;10.018;2024-02-21T06:03:15;12.37;;;6.97;;
16286;SDS011;8251;53.568;10.018;2024-02-21T06:05:45;18.60;;;8.03;;
16286;SDS011;8251;53.568;10.018;2024-02-21T06:08:15;11.20;;;5.73;;
16286;SDS011;8251;53.568;10.018;2024-02-21T06:10:42;10.93;;;6.30;;
16286;SDS011;8251;53.568;10.018;2024-02-21T06:13:13;13.47;;;6.33;;
16286;SDS011;8251;53.568;10.018;2024-02-21T06:15:42;12.00;;;6.23;;
16286;SDS011;8251;53.568;10.018;2024-02-21T06:18:15;12.97;;;6.57;;
16286;SDS011;8251;53.568;10.018;2024-02-21T06:20:45;11.50;;;5.67;;
16286;SDS011;8251;53.568;10.018;2024-02-21T06:23:17;11.30;;;5.57;;
16286;SDS011;8251;53.568;10.018;2024-02-21T06:25:47;17.50;;;6.10;;
16286;SDS011;8251;53.568;10.018;2024-02-21T06:28:19;11.20;;;5.57;;
16286;SDS011;8251;53.568;10.018;2024-02-21T06:30:48;9.97;;;5.07;;
16286;SDS011;8251;53.568;10.018;2024-02-21T06:33:15;10.67;;;5.63;;
16286;SDS011;8251;53.568;10.018;2024-02-21T06:35:45;12.33;;;6.17;;
16286;SDS011;8251;53.568;10.018;2024-02-21T06:38:13;9.40;;;4.67;;
16286;SDS011;8251;53.568;10.018;2024-02-21T06:40:42;11.23;;;6.00;;
16286;SDS011;8251;53.568;10.018;2024-02-21T06:43:14;8.97;;;5.40;;
16286;SDS011;8251;53.568;10.018;2024-02-21T06:45:43;6.97;;;5.17;;
16286;SDS011;8251;53.568;10.018;2024-02-21T06:48:17;9.20;;;5.23;;
16286;SDS011;8251;53.568;10.018;2024-02-21T06:50:44;6.87;;;4.63;;
16286;SDS011;8251;53.568;10.018;2024-02-21T06:53:15;5.80;;;3.73;;
16286;SDS011;8251;53.568;10.018;2024-02-21T06:55:43;7.07;;;3.80;;
16286;SDS011;8251;53.568;10.018;2024-02-21T06:58:10;10.07;;;3.83;;
16286;SDS011;8251;53.568;10.018;2024-02-21T07:00:42;7.07;;;4.30;;
16286;SDS011;8251;53.568;10.018;2024-02-21T07:03:13;8.93;;;4.30;;
16286;SDS011;8251;53.568;10.018;2024-02-21T07:05:41;6.67;;;3.93;;
16286;SDS011;8251;53.568;10.018;2024-02-21T07:08:09;7.97;;;4.70;;
16286;SDS011;8251;53.568;10.018;2024-02-21T07:10:36;5.80;;;3.83;;
16286;SDS011;8251;53.568;10.018;2024-02-21T07:13:11;6.93;;;4.50;;
16286;SDS011;8251;53.568;10.018;2024-02-21T07:16:01;7.00;;;4.50;;
16286;SDS011;8251;53.568;10.018;2024-02-21T07:18:53;8.70;;;5.40;;
16286;SDS011;8251;53.568;10.018;2024-02-21T07:21:26;8.40;;;5.20;;
16286;SDS011;8251;53.568;10.018;2024-02-21T07:23:56;7.43;;;4.57;;
16286;SDS011;8251;53.568;10.018;2024-02-21T07:26:24;7.30;;;4.93;;
16286;SDS011;8251;53.568;10.018;2024-02-21T07:28:51;8.47;;;4.73;;
16286;SDS011;8251;53.568;10.018;2024-02-21T07:31:23;8.07;;;5.03;;
16286;SDS011;8251;53.568;10.018;2024-02-21T07:33:52;8.67;;;6.07;;
16286;SDS011;8251;53.568;10.018;2024-02-21T07:36:27;11.00;;;5.57;;
16286;SDS011;8251;53.568;10.018;2024-02-21T07:38:55;12.40;;;6.10;;
16286;SDS011;8251;53.568;10.018;2024-02-21T07:41:27;9.60;;;5.73;;
16286;SDS011;8251;53.568;10.018;2024-02-21T07:43:55;8.90;;;5.97;;
16286;SDS011;8251;53.568;10.018;2024-02-21T07:46:24;8.57;;;5.77;;
16286;SDS011;8251;53.568;10.018;2024-02-21T07:48:57;8.27;;;5.50;;
16286;SDS011;8251;53.568;10.018;2024-02-21T07:51:50;6.80;;;4.30;;
16286;SDS011;8251;53.568;10.018;2024-02-21T07:54:35;7.37;;;4.70;;
16286;SDS011;8251;53.568;10.018;2024-02-21T07:57:02;7.50;;;4.80;;
16286;SDS011;8251;53.568;10.018;2024-02-21T07:59:30;7.53;;;4.60;;
16286;SDS011;8251;53.568;10.018;2024-02-21T08:01:58;7.50;;;4.57;;
16286;SDS011;8251;53.568;10.018;2024-02-21T08:04:32;7.77;;;4.20;;
16286;SDS011;8251;53.568;10.018;2024-02-21T08:07:00;6.20;;;4.33;;
16286;SDS011;8251;53.568;10.018;2024-02-21T08:09:30;5.63;;;4.00;;
16286;SDS011;8251;53.568;10.018;2024-02-21T08:11:57;9.00;;;3.90;;
16286;SDS011;8251;53.568;10.018;2024-02-21T08:14:25;6.50;;;3.43;;
16286;SDS011;8251;53.568;10.018;2024-02-21T08:16:54;5.50;;;3.13;;
16286;SDS011;8251;53.568;10.018;2024-02-21T08:19:24;9.97;;;3.13;;
16286;SDS011;8251;53.568;10.018;2024-02-21T08:21:51;10.70;;;3.57;;
16286;SDS011;8251;53.568;10.018;2024-02-21T08:24:20;15.07;;;3.17;;
16286;SDS011;8251;53.568;10.018;2024-02-21T08:26:48;18.07;;;3.40;;
16286;SDS011;8251;53.568;10.018;2024-02-21T08:29:18;8.10;;;3.07;;
16286;SDS011;8251;53.568;10.018;2024-02-21T08:31:45;15.97;;;3.20;;
16286;SDS011;8251;53.568;10.018;2024-02-21T08:34:13;8.73;;;3.17;;
16286;SDS011;8251;53.568;10.018;2024-02-21T08:36:42;18.93;;;3.50;;
16286;SDS011;8251;53.568;10.018;2024-02-21T08:39:12;12.60;;;3.03;;
16286;SDS011;8251;53.568;10.018;2024-02-21T08:41:51;13.60;;;3.10;;
16286;SDS011;8251;53.568;10.018;2024-02-21T08:44:25;14.57;;;2.43;;
16286;SDS011;8251;53.568;10.018;2024-02-21T08:46:55;10.83;;;2.83;;
16286;SDS011;8251;53.568;10.018;2024-02-21T08:49:22;13.40;;;2.60;;
16286;SDS011;8251;53.568;10.018;2024-02-21T08:51:54;20.07;;;3.43;;
16286;SDS011;8251;53.568;10.018;2024-02-21T08:54:24;11.43;;;2.70;;
16286;SDS011;8251;53.568;10.018;2024-02-21T08:56:53;12.37;;;2.83;;
16286;SDS011;8251;53.568;10.018;2024-02-21T08:59:21;18.47;;;2.50;;
16286;SDS011;8251;53.568;10.018;2024-02-21T09:01:48;13.37;;;2.57;;
16286;SDS011;8251;53.568;10.018;2024-02-21T09:04:15;13.77;;;2.53;;
16286;SDS011;8251;53.568;10.018;2024-02-21T09:06:42;10.50;;;3.63;;
16286;SDS011;8251;53.568;10.018;2024-02-21T09:09:11;12.03;;;2.57;;
16286;SDS011;8251;53.568;10.018;2024-02-21T09:11:38;11.80;;;2.53;;
16286;SDS011;8251;53.568;10.018;2024-02-21T09:14:07;9.40;;;3.10;;
16286;SDS011;8251;53.568;10.018;2024-02-21T09:16:34;8.37;;;3.43;;
16286;SDS011;8251;53.568;10.018;2024-02-21T09:19:02;6.67;;;2.27;;
16286;SDS011;8251;53.568;10.018;2024-02-21T09:21:29;8.87;;;2.40;;
16286;SDS011;8251;53.568;10.018;2024-02-21T09:23:58;12.30;;;2.03;;
16286;SDS011;8251;53.568;10.018;2024-02-21T09:26:28;5.53;;;2.27;;
16286;SDS011;8251;53.568;10.018;2024-02-21T09:28:57;12.00;;;3.17;;
16286;SDS011;8251;53.568;10.018;2024-02-21T09:31:26;7.20;;;2.20;;
16286;SDS011;8251;53.568;10.018;2024-02-21T09:33:53;7.93;;;2.27;;
16286;SDS011;8251;53.568;10.018;2024-02-21T09:36:23;6.57;;;1.87;;
16286;SDS011;8251;53.568;10.018;2024-02-21T09:38:50;8.07;;;2.10;;
16286;SDS011;8251;53.568;10.018;2024-02-21T09:41:17;8.93;;;2.07;;
16286;SDS011;8251;53.568;10.018;2024-02-21T09:43:51;8.80;;;2.10;;
16286;SDS011;8251;53.568;10.018;2024-02-21T09:46:24;6.97;;;2.23;;
16286;SDS011;8251;53.568;10.018;2024-02-21T09:49:01;20.30;;;4.37;;
16286;SDS011;8251;53.568;10.018;2024-02-21T09:51:34;9.80;;;2.33;;
16286;SDS011;8251;53.568;10.018;2024-02-21T09:54:05;9.83;;;2.80;;
16286;SDS011;8251;53.568;10.018;2024-02-21T09:56:34;8.33;;;2.70;;
16286;SDS011;8251;53.568;10.018;2024-02-21T09:59:01;10.73;;;3.30;;
16286;SDS011;8251;53.568;10.018;2024-02-21T10:01:31;8.57;;;1.80;;
16286;SDS011;8251;53.568;10.018;2024-02-21T10:03:58;8.20;;;2.20;;
16286;SDS011;8251;53.568;10.018;2024-02-21T10:06:25;8.03;;;2.57;;
16286;SDS011;8251;53.568;10.018;2024-02-21T10:08:56;4.67;;;2.03;;
16286;SDS011;8251;53.568;10.018;2024-02-21T10:11:31;4.20;;;2.37;;
16286;SDS011;8251;53.568;10.018;2024-02-21T10:14:03;10.37;;;3.10;;
16286;SDS011;8251;53.568;10.018;2024-02-21T10:16:32;8.70;;;3.50;;
16286;SDS011;8251;53.568;10.018;2024-02-21T10:19:02;7.00;;;4.37;;
16286;SDS011;8251;53.568;10.018;2024-02-21T10:21:29;9.03;;;5.20;;
16286;SDS011;8251;53.568;10.018;2024-02-21T10:23:56;11.20;;;5.97;;
16286;SDS011;8251;53.568;10.018;2024-02-21T10:26:25;13.30;;;7.13;;
16286;SDS011;8251;53.568;10.018;2024-02-21T10:29:04;16.53;;;9.30;;
16286;SDS011;8251;53.568;10.018;2024-02-21T10:31:38;14.10;;;9.33;;
16286;SDS011;8251;53.568;10.018;2024-02-21T10:34:05;15.20;;;8.83;;
16286;SDS011;8251;53.568;10.018;2024-02-21T10:36:33;18.30;;;9.93;;
16286;SDS011;8251;53.568;10.018;2024-02-21T10:39:00;18.97;;;10.40;;
16286;SDS011;8251;53.568;10.018;2024-02-21T10:41:27;17.20;;;9.53;;
16286;SDS011;8251;53.568;10.018;2024-02-21T10:43:56;17.63;;;10.40;;
16286;SDS011;8251;53.568;10.018;2024-02-21T10:46:24;20.53;;;11.23;;
16286;SDS011;8251;53.568;10.018;2024-02-21T10:48:55;23.67;;;11.83;;
16286;SDS011;8251;53.568;10.018;2024-02-21T10:51:33;20.83;;;11.20;;
16286;SDS011;8251;53.568;10.018;2024-02-21T10:54:07;23.63;;;11.30;;
16286;SDS011;8251;53.568;10.018;2024-02-21T10:56:42;23.07;;;11.47;;
16286;SDS011;8251;53.568;10.018;2024-02-21T10:59:11;22.33;;;11.20;;
16286;SDS011;8251;53.568;10.018;2024-02-21T11:01:39;19.43;;;11.07;;
16286;SDS011;8251;53.568;10.018;2024-02-21T11:04:10;22.03;;;12.17;;
16286;SDS011;8251;53.568;10.018;2024-02-21T11:06:43;20.30;;;10.23;;
16286;SDS011;8251;53.568;10.018;2024-02-21T11:09:10;24.57;;;12.53;;
16286;SDS011;8251;53.568;10.018;2024-02-21T11:11:38;24.47;;;11.47;;
16286;SDS011;8251;53.568;10.018;2024-02-21T11:14:09;18.60;;;10.43;;
16286;SDS011;8251;53.568;10.018;2024-02-21T11:16:39;21.03;;;9.73;;
16286;SDS011;8251;53.568;10.018;2024-02-21T11:19:19;18.70;;;9.93;;
16286;SDS011;8251;53.568;10.018;2024-02-21T11:21:47;17.03;;;9.30;;
16286;SDS011;8251;53.568;10.018;2024-02-21T11:24:16;20.70;;;8.90;;
16286;SDS011;8251;53.568;10.018;2024-02-21T11:26:53;19.80;;;8.93;;
16286;SDS011;8251;53.568;10.018;2024-02-21T11:29:24;16.40;;;8.60;;
16286;SDS011;8251;53.568;10.018;2024-02-21T11:31:52;21.00;;;9.07;;
16286;SDS011;8251;53.568;10.018;2024-02-21T11:34:20;17.30;;;9.17;;
16286;SDS011;8251;53.568;10.018;2024-02-21T11:36:47;15.37;;;8.70;;
16286;SDS011;8251;53.568;10.018;2024-02-21T11:39:19;19.77;;;8.87;;
16286;SDS011;8251;53.568;10.018;2024-02-21T11:41:47;15.27;;;7.80;;
16286;SDS011;8251;53.568;10.018;2024-02-21T11:44:27;14.80;;;7.73;;
16286;SDS011;8251;53.568;10.018;2024-02-21T11:46:54;15.77;;;7.67;;
16286;SDS011;8251;53.568;10.018;2024-02-21T11:49:23;14.13;;;7.27;;
16286;SDS011;8251;53.568;10.018;2024-02-21T11:51:57;13.27;;;7.40;;
16286;SDS011;8251;53.568;10.018;2024-02-21T11:54:25;13.33;;;7.43;;
16286;SDS011;8251;53.568;10.018;2024-02-21T11:56:51;10.33;;;6.77;;
16286;SDS011;8251;53.568;10.018;2024-02-21T11:59:23;13.77;;;6.70;;
16286;SDS011;8251;53.568;10.018;2024-02-21T12:01:55;17.03;;;7.10;;
16286;SDS011;8251;53.568;10.018;2024-02-21T12:04:25;11.53;;;6.77;;
16286;SDS011;8251;53.568;10.018;2024-02-21T12:06:52;12.87;;;6.70;;
16286;SDS011;8251;53.568;10.018;2024-02-21T12:09:23;11.90;;;6.43;;
16286;SDS011;8251;53.568;10.018;2024-02-21T12:11:56;12.90;;;6.80;;
16286;SDS011;8251;53.568;10.018;2024-02-21T12:14:25;11.60;;;7.50;;
16286;SDS011;8251;53.568;10.018;2024-02-21T12:16:53;13.70;;;7.13;;
16286;SDS011;8251;53.568;10.018;2024-02-21T12:19:20;16.97;;;8.23;;
16286;SDS011;8251;53.568;10.018;2024-02-21T12:21:49;11.87;;;6.93;;
16286;SDS011;8251;53.568;10.018;2024-02-21T12:24:21;14.67;;;6.97;;
16286;SDS011;8251;53.568;10.018;2024-02-21T12:26:49;15.97;;;8.07;;
16286;SDS011;8251;53.568;10.018;2024-02-21T12:29:17;14.63;;;7.03;;
16286;SDS011;8251;53.568;10.018;2024-02-21T12:31:44;10.40;;;7.23;;
16286;SDS011;8251;53.568;10.018;2024-02-21T12:34:11;17.47;;;7.73;;
16286;SDS011;8251;53.568;10.018;2024-02-21T12:36:40;13.70;;;7.70;;
16286;SDS011;8251;53.568;10.018;2024-02-21T12:39:09;15.60;;;7.57;;
16286;SDS011;8251;53.568;10.018;2024-02-21T12:41:36;11.23;;;7.17;;
16286;SDS011;8251;53.568;10.018;2024-02-21T12:44:05;13.83;;;6.93;;
16286;SDS011;8251;53.568;10.018;2024-02-21T12:48:01;18.77;;;8.30;;
16286;SDS011;8251;53.568;10.018;2024-02-21T12:50:38;16.07;;;8.10;;
16286;SDS011;8251;53.568;10.018;2024-02-21T12:53:09;17.53;;;8.80;;
16286;SDS011;8251;53.568;10.018;2024-02-21T12:55:36;15.63;;;8.20;;
16286;SDS011;8251;53.568;10.018;2024-02-21T12:58:06;16.43;;;8.50;;
16286;SDS011;8251;53.568;10.018;2024-02-21T13:00:37;20.47;;;9.90;;
16286;SDS011;8251;53.568;10.018;2024-02-21T13:03:04;23.03;;;8.47;;
16286;SDS011;8251;53.568;10.018;2024-02-21T13:05:31;15.93;;;8.57;;
16286;SDS011;8251;53.568;10.018;2024-02-21T13:07:59;17.40;;;9.70;;
16286;SDS011;8251;53.568;10.018;2024-02-21T13:10:26;14.73;;;8.90;;
16286;SDS011;8251;53.568;10.018;2024-02-21T13:12:53;19.00;;;9.63;;
16286;SDS011;8251;53.568;10.018;2024-02-21T13:15:20;22.37;;;9.33;;
16286;SDS011;8251;53.568;10.018;2024-02-21T13:17:47;16.20;;;8.23;;
16286;SDS011;8251;53.568;10.018;2024-02-21T13:20:16;14.47;;;7.97;;
16286;SDS011;8251;53.568;10.018;2024-02-21T13:22:48;13.77;;;8.17;;
16286;SDS011;8251;53.568;10.018;2024-02-21T13:25:16;15.67;;;8.57;;
16286;SDS011;8251;53.568;10.018;2024-02-21T13:27:46;17.37;;;8.37;;
16286;SDS011;8251;53.568;10.018;2024-02-21T13:30:16;16.93;;;9.60;;
16286;SDS011;8251;53.568;10.018;2024-02-21T13:32:43;21.80;;;8.90;;
16286;SDS011;8251;53.568;10.018;2024-02-21T13:35:13;19.83;;;9.03;;
16286;SDS011;8251;53.568;10.018;2024-02-21T13:37:41;16.73;;;8.80;;
16286;SDS011;8251;53.568;10.018;2024-02-21T13:40:08;18.10;;;7.10;;
16286;SDS011;8251;53.568;10.018;2024-02-21T13:42:37;14.37;;;7.30;;
16286;SDS011;8251;53.568;10.018;2024-02-21T13:45:08;18.60;;;7.67;;
16286;SDS011;8251;53.568;10.018;2024-02-21T13:47:35;13.23;;;7.50;;
16286;SDS011;8251;53.568;10.018;2024-02-21T13:50:06;20.67;;;7.73;;
16286;SDS011;8251;53.568;10.018;2024-02-21T13:52:36;14.90;;;8.03;;
16286;SDS011;8251;53.568;10.018;2024-02-21T13:55:03;12.87;;;7.27;;
16286;SDS011;8251;53.568;10.018;2024-02-21T13:57:33;13.27;;;7.50;;
16286;SDS011;8251;53.568;10.018;2024-02-21T14:00:07;17.00;;;7.40;;
16286;SDS011;8251;53.568;10.018;2024-02-21T14:02:37;17.23;;;8.03;;
16286;SDS011;8251;53.568;10.018;2024-02-21T14:05:05;15.30;;;7.27;;
16286;SDS011;8251;53.568;10.018;2024-02-21T14:07:32;18.17;;;8.03;;
16286;SDS011;8251;53.568;10.018;2024-02-21T14:10:03;18.27;;;7.83;;
16286;SDS011;8251;53.568;10.018;2024-02-21T14:12:33;17.47;;;7.70;;
16286;SDS011;8251;53.568;10.018;2024-02-21T14:15:01;17.80;;;8.50;;
16286;SDS011;8251;53.568;10.018;2024-02-21T14:17:28;13.47;;;7.33;;
16286;SDS011;8251;53.568;10.018;2024-02-21T14:19:55;14.20;;;7.20;;
16286;SDS011;8251;53.568;10.018;2024-02-21T14:22:24;13.63;;;7.20;;
16286;SDS011;8251;53.568;10.018;2024-02-21T14:24:51;14.87;;;8.00;;
16286;SDS011;8251;53.568;10.018;2024-02-21T14:27:18;13.33;;;6.70;;
16286;SDS011;8251;53.568;10.018;2024-02-21T14:29:45;11.53;;;6.67;;
16286;SDS011;8251;53.568;10.018;2024-02-21T14:32:13;11.23;;;6.77;;
16286;SDS011;8251;53.568;10.018;2024-02-21T14:34:41;8.70;;;5.80;;
16286;SDS011;8251;53.568;10.018;2024-02-21T14:37:10;15.23;;;6.13;;
16286;SDS011;8251;53.568;10.018;2024-02-21T14:39:38;12.90;;;6.87;;
16286;SDS011;8251;53.568;10.018;2024-02-21T14:42:05;11.47;;;5.50;;
16286;SDS011;8251;53.568;10.018;2024-02-21T14:44:34;9.23;;;6.03;;
16286;SDS011;8251;53.568;10.018;2024-02-21T14:47:01;10.30;;;5.33;;
16286;SDS011;8251;53.568;10.018;2024-02-21T14:49:30;8.73;;;5.70;;